<?xml version="1.0" encoding="UTF-8" standalone="no" ?>
<gpx xmlns="http://www.topografix.com/GPX/1/1" xmlns:xsi="http://www.w3.org/2001/XMLSchema-instance" xsi:schemaLocation="http://www.topografix.com/GPX/1/1 http://www.topografix.com/GPX/1/1/gpx.xsd" version="1.1" creator="VisuGPX - https://www.visugpx.com">
  <metadata>
    <name>Reze_Autour_8-19km</name>
    <desc><![CDATA[gnerando idor:5792578_5792726_5814453_5825877_6470772_8005623_8320604_9624624__]]></desc>
  </metadata>
  <trk>
    <name><![CDATA[Reze_HauteIleEtBasseIle_11km-5691299]]></name>
    <extensions>
      <line xmlns="http://www.topografix.com/GPX/gpx_style/0/2">
        <color>880000</color>
        <width>4</width>
      </line>
    </extensions>
    <trkseg>
      <trkpt lat="47.19659" lon="-1.54303">
        <ele>9</ele>
        <time>2024-01-27T13:34:09Z</time>
      </trkpt>
      <trkpt lat="47.19583" lon="-1.54315">
        <ele>7</ele>
        <time>2024-01-27T13:35:51Z</time>
      </trkpt>
      <trkpt lat="47.19544" lon="-1.54356">
        <ele>7</ele>
        <time>2024-01-27T13:36:55Z</time>
      </trkpt>
      <trkpt lat="47.19539" lon="-1.54381">
        <ele>6</ele>
        <time>2024-01-27T13:37:19Z</time>
      </trkpt>
      <trkpt lat="47.19511" lon="-1.54412">
        <ele>5</ele>
        <time>2024-01-27T13:38:05Z</time>
      </trkpt>
      <trkpt lat="47.19463" lon="-1.5446">
        <ele>6</ele>
        <time>2024-01-27T13:39:23Z</time>
      </trkpt>
      <trkpt lat="47.19492" lon="-1.54536">
        <ele>5</ele>
        <time>2024-01-27T13:40:42Z</time>
      </trkpt>
      <trkpt lat="47.19492" lon="-1.54584">
        <ele>4</ele>
        <time>2024-01-27T13:41:25Z</time>
      </trkpt>
      <trkpt lat="47.19561" lon="-1.54667">
        <ele>5</ele>
        <time>2024-01-27T13:43:24Z</time>
      </trkpt>
      <trkpt lat="47.19597" lon="-1.54714">
        <ele>4</ele>
        <time>2024-01-27T13:44:28Z</time>
      </trkpt>
      <trkpt lat="47.19649" lon="-1.54781">
        <ele>4</ele>
        <time>2024-01-27T13:46:01Z</time>
      </trkpt>
      <trkpt lat="47.19679" lon="-1.54854">
        <ele>5</ele>
        <time>2024-01-27T13:47:18Z</time>
      </trkpt>
      <trkpt lat="47.19681" lon="-1.54906">
        <ele>5</ele>
        <time>2024-01-27T13:48:05Z</time>
      </trkpt>
      <trkpt lat="47.19677" lon="-1.54939">
        <ele>6</ele>
        <time>2024-01-27T13:48:36Z</time>
      </trkpt>
      <trkpt lat="47.19684" lon="-1.54947">
        <ele>5</ele>
        <time>2024-01-27T13:48:48Z</time>
      </trkpt>
      <trkpt lat="47.19711" lon="-1.54953">
        <ele>3</ele>
        <time>2024-01-27T13:49:24Z</time>
      </trkpt>
      <trkpt lat="47.19713" lon="-1.54989">
        <ele>3</ele>
        <time>2024-01-27T13:49:57Z</time>
      </trkpt>
      <trkpt lat="47.19673" lon="-1.54995">
        <ele>7</ele>
        <time>2024-01-27T13:50:50Z</time>
      </trkpt>
      <trkpt lat="47.19675" lon="-1.55086">
        <ele>5</ele>
        <time>2024-01-27T13:52:13Z</time>
      </trkpt>
      <trkpt lat="47.19678" lon="-1.55155">
        <ele>4</ele>
        <time>2024-01-27T13:53:16Z</time>
      </trkpt>
      <trkpt lat="47.19679" lon="-1.55233">
        <ele>3</ele>
        <time>2024-01-27T13:54:26Z</time>
      </trkpt>
      <trkpt lat="47.19664" lon="-1.55234">
        <ele>3</ele>
        <time>2024-01-27T13:54:46Z</time>
      </trkpt>
      <trkpt lat="47.1966" lon="-1.55391">
        <ele>3</ele>
        <time>2024-01-27T13:57:09Z</time>
      </trkpt>
      <trkpt lat="47.19667" lon="-1.55473">
        <ele>2</ele>
        <time>2024-01-27T13:58:24Z</time>
      </trkpt>
      <trkpt lat="47.19686" lon="-1.55516">
        <ele>2</ele>
        <time>2024-01-27T13:59:10Z</time>
      </trkpt>
      <trkpt lat="47.19695" lon="-1.5554">
        <ele>2</ele>
        <time>2024-01-27T13:59:35Z</time>
      </trkpt>
      <trkpt lat="47.19684" lon="-1.55544">
        <ele>2</ele>
        <time>2024-01-27T13:59:50Z</time>
      </trkpt>
      <trkpt lat="47.19682" lon="-1.55572">
        <ele>3</ele>
        <time>2024-01-27T14:00:16Z</time>
      </trkpt>
      <trkpt lat="47.19657" lon="-1.55564">
        <ele>4</ele>
        <time>2024-01-27T14:00:50Z</time>
      </trkpt>
      <trkpt lat="47.19632" lon="-1.55562">
        <ele>4</ele>
        <time>2024-01-27T14:01:23Z</time>
      </trkpt>
      <trkpt lat="47.19616" lon="-1.55568">
        <ele>4</ele>
        <time>2024-01-27T14:01:45Z</time>
      </trkpt>
      <trkpt lat="47.19613" lon="-1.55602">
        <ele>5</ele>
        <time>2024-01-27T14:02:16Z</time>
      </trkpt>
      <trkpt lat="47.19523" lon="-1.55572">
        <ele>5</ele>
        <time>2024-01-27T14:04:20Z</time>
      </trkpt>
      <trkpt lat="47.19441" lon="-1.55552">
        <ele>6</ele>
        <time>2024-01-27T14:06:11Z</time>
      </trkpt>
      <trkpt lat="47.19348" lon="-1.55524">
        <ele>7</ele>
        <time>2024-01-27T14:08:17Z</time>
      </trkpt>
      <trkpt lat="47.19273" lon="-1.55497">
        <ele>7</ele>
        <time>2024-01-27T14:10:00Z</time>
      </trkpt>
      <trkpt lat="47.19264" lon="-1.55486">
        <ele>7</ele>
        <time>2024-01-27T14:10:16Z</time>
      </trkpt>
      <trkpt lat="47.19254" lon="-1.55475">
        <ele>7</ele>
        <time>2024-01-27T14:10:33Z</time>
      </trkpt>
      <trkpt lat="47.19225" lon="-1.55473">
        <ele>6</ele>
        <time>2024-01-27T14:11:11Z</time>
      </trkpt>
      <trkpt lat="47.19207" lon="-1.55464">
        <ele>6</ele>
        <time>2024-01-27T14:11:37Z</time>
      </trkpt>
      <trkpt lat="47.19205" lon="-1.55575">
        <ele>6</ele>
        <time>2024-01-27T14:13:17Z</time>
      </trkpt>
      <trkpt lat="47.19209" lon="-1.55819">
        <ele>9</ele>
        <time>2024-01-27T14:16:59Z</time>
      </trkpt>
      <trkpt lat="47.1922" lon="-1.55955">
        <ele>10</ele>
        <time>2024-01-27T14:19:03Z</time>
      </trkpt>
      <trkpt lat="47.19232" lon="-1.56161">
        <ele>8</ele>
        <time>2024-01-27T14:22:10Z</time>
      </trkpt>
      <trkpt lat="47.19228" lon="-1.56193">
        <ele>8</ele>
        <time>2024-01-27T14:22:40Z</time>
      </trkpt>
      <trkpt lat="47.19215" lon="-1.56229">
        <ele>8</ele>
        <time>2024-01-27T14:23:17Z</time>
      </trkpt>
      <trkpt lat="47.19214" lon="-1.56312">
        <ele>8</ele>
        <time>2024-01-27T14:24:32Z</time>
      </trkpt>
      <trkpt lat="47.19236" lon="-1.56424">
        <ele>8</ele>
        <time>2024-01-27T14:26:18Z</time>
      </trkpt>
      <trkpt lat="47.19228" lon="-1.56506">
        <ele>6</ele>
        <time>2024-01-27T14:27:33Z</time>
      </trkpt>
      <trkpt lat="47.19226" lon="-1.56624">
        <ele>5</ele>
        <time>2024-01-27T14:29:20Z</time>
      </trkpt>
      <trkpt lat="47.19221" lon="-1.56743">
        <ele>5</ele>
        <time>2024-01-27T14:31:08Z</time>
      </trkpt>
      <trkpt lat="47.19215" lon="-1.56858">
        <ele>6</ele>
        <time>2024-01-27T14:32:53Z</time>
      </trkpt>
      <trkpt lat="47.19234" lon="-1.56867">
        <ele>5</ele>
        <time>2024-01-27T14:33:19Z</time>
      </trkpt>
      <trkpt lat="47.19242" lon="-1.56928">
        <ele>5</ele>
        <time>2024-01-27T14:34:16Z</time>
      </trkpt>
      <trkpt lat="47.19237" lon="-1.5695">
        <ele>5</ele>
        <time>2024-01-27T14:34:37Z</time>
      </trkpt>
      <trkpt lat="47.192" lon="-1.56958">
        <ele>7</ele>
        <time>2024-01-27T14:35:27Z</time>
      </trkpt>
      <trkpt lat="47.19187" lon="-1.56957">
        <ele>7</ele>
        <time>2024-01-27T14:35:44Z</time>
      </trkpt>
      <trkpt lat="47.19153" lon="-1.5696">
        <ele>9</ele>
        <time>2024-01-27T14:36:29Z</time>
      </trkpt>
      <trkpt lat="47.19127" lon="-1.5696">
        <ele>11</ele>
        <time>2024-01-27T14:37:04Z</time>
      </trkpt>
      <trkpt lat="47.1911" lon="-1.56956">
        <ele>13</ele>
        <time>2024-01-27T14:37:27Z</time>
      </trkpt>
      <trkpt lat="47.19103" lon="-1.56978">
        <ele>13</ele>
        <time>2024-01-27T14:37:49Z</time>
      </trkpt>
      <trkpt lat="47.19121" lon="-1.56987">
        <ele>12</ele>
        <time>2024-01-27T14:38:15Z</time>
      </trkpt>
      <trkpt lat="47.1913" lon="-1.56973">
        <ele>11</ele>
        <time>2024-01-27T14:38:32Z</time>
      </trkpt>
      <trkpt lat="47.19192" lon="-1.56976">
        <ele>7</ele>
        <time>2024-01-27T14:39:55Z</time>
      </trkpt>
      <trkpt lat="47.19241" lon="-1.56971">
        <ele>5</ele>
        <time>2024-01-27T14:41:00Z</time>
      </trkpt>
      <trkpt lat="47.19256" lon="-1.56976">
        <ele>5</ele>
        <time>2024-01-27T14:41:21Z</time>
      </trkpt>
      <trkpt lat="47.19263" lon="-1.57019">
        <ele>5</ele>
        <time>2024-01-27T14:42:01Z</time>
      </trkpt>
      <trkpt lat="47.19288" lon="-1.57042">
        <ele>6</ele>
        <time>2024-01-27T14:42:40Z</time>
      </trkpt>
      <trkpt lat="47.19342" lon="-1.57041">
        <ele>7</ele>
        <time>2024-01-27T14:43:52Z</time>
      </trkpt>
      <trkpt lat="47.19386" lon="-1.5706">
        <ele>7</ele>
        <time>2024-01-27T14:44:54Z</time>
      </trkpt>
      <trkpt lat="47.1943" lon="-1.57068">
        <ele>6</ele>
        <time>2024-01-27T14:45:53Z</time>
      </trkpt>
      <trkpt lat="47.19458" lon="-1.57065">
        <ele>6</ele>
        <time>2024-01-27T14:46:30Z</time>
      </trkpt>
      <trkpt lat="47.1948" lon="-1.57082">
        <ele>6</ele>
        <time>2024-01-27T14:47:03Z</time>
      </trkpt>
      <trkpt lat="47.1954" lon="-1.57098">
        <ele>7</ele>
        <time>2024-01-27T14:48:25Z</time>
      </trkpt>
      <trkpt lat="47.19604" lon="-1.57115">
        <ele>7</ele>
        <time>2024-01-27T14:49:51Z</time>
      </trkpt>
      <trkpt lat="47.19597" lon="-1.57175">
        <ele>7</ele>
        <time>2024-01-27T14:50:47Z</time>
      </trkpt>
      <trkpt lat="47.19587" lon="-1.57304">
        <ele>7</ele>
        <time>2024-01-27T14:52:44Z</time>
      </trkpt>
      <trkpt lat="47.19558" lon="-1.57481">
        <ele>6</ele>
        <time>2024-01-27T14:55:30Z</time>
      </trkpt>
      <trkpt lat="47.1954" lon="-1.57578">
        <ele>6</ele>
        <time>2024-01-27T14:57:01Z</time>
      </trkpt>
      <trkpt lat="47.19528" lon="-1.57627">
        <ele>6</ele>
        <time>2024-01-27T14:57:48Z</time>
      </trkpt>
      <trkpt lat="47.1952" lon="-1.57717">
        <ele>5</ele>
        <time>2024-01-27T14:59:10Z</time>
      </trkpt>
      <trkpt lat="47.19547" lon="-1.5775">
        <ele>6</ele>
        <time>2024-01-27T14:59:57Z</time>
      </trkpt>
      <trkpt lat="47.19534" lon="-1.57825">
        <ele>5</ele>
        <time>2024-01-27T15:01:07Z</time>
      </trkpt>
      <trkpt lat="47.19573" lon="-1.5783">
        <ele>4</ele>
        <time>2024-01-27T15:01:59Z</time>
      </trkpt>
      <trkpt lat="47.19597" lon="-1.57847">
        <ele>3</ele>
        <time>2024-01-27T15:02:35Z</time>
      </trkpt>
      <trkpt lat="47.19588" lon="-1.57867">
        <ele>3</ele>
        <time>2024-01-27T15:02:57Z</time>
      </trkpt>
      <trkpt lat="47.19537" lon="-1.57832">
        <ele>5</ele>
        <time>2024-01-27T15:04:12Z</time>
      </trkpt>
      <trkpt lat="47.19519" lon="-1.57817">
        <ele>5</ele>
        <time>2024-01-27T15:04:39Z</time>
      </trkpt>
      <trkpt lat="47.19486" lon="-1.57829">
        <ele>5</ele>
        <time>2024-01-27T15:05:25Z</time>
      </trkpt>
      <trkpt lat="47.195" lon="-1.57921">
        <ele>3</ele>
        <time>2024-01-27T15:06:50Z</time>
      </trkpt>
      <trkpt lat="47.19517" lon="-1.58018">
        <ele>3</ele>
        <time>2024-01-27T15:08:21Z</time>
      </trkpt>
      <trkpt lat="47.19531" lon="-1.58102">
        <ele>3</ele>
        <time>2024-01-27T15:09:40Z</time>
      </trkpt>
      <trkpt lat="47.1953" lon="-1.58216">
        <ele>4</ele>
        <time>2024-01-27T15:11:23Z</time>
      </trkpt>
      <trkpt lat="47.1952" lon="-1.58251">
        <ele>5</ele>
        <time>2024-01-27T15:11:57Z</time>
      </trkpt>
      <trkpt lat="47.19495" lon="-1.58295">
        <ele>4</ele>
        <time>2024-01-27T15:12:49Z</time>
      </trkpt>
      <trkpt lat="47.19452" lon="-1.58266">
        <ele>6</ele>
        <time>2024-01-27T15:13:53Z</time>
      </trkpt>
      <trkpt lat="47.19459" lon="-1.58224">
        <ele>6</ele>
        <time>2024-01-27T15:14:32Z</time>
      </trkpt>
      <trkpt lat="47.19407" lon="-1.58201">
        <ele>6</ele>
        <time>2024-01-27T15:15:44Z</time>
      </trkpt>
      <trkpt lat="47.19405" lon="-1.58225">
        <ele>6</ele>
        <time>2024-01-27T15:16:06Z</time>
      </trkpt>
      <trkpt lat="47.19438" lon="-1.58255">
        <ele>7</ele>
        <time>2024-01-27T15:16:58Z</time>
      </trkpt>
      <trkpt lat="47.19426" lon="-1.58267">
        <ele>7</ele>
        <time>2024-01-27T15:17:17Z</time>
      </trkpt>
      <trkpt lat="47.19411" lon="-1.58257">
        <ele>7</ele>
        <time>2024-01-27T15:17:39Z</time>
      </trkpt>
      <trkpt lat="47.19408" lon="-1.58275">
        <ele>7</ele>
        <time>2024-01-27T15:17:56Z</time>
      </trkpt>
      <trkpt lat="47.19389" lon="-1.58269">
        <ele>7</ele>
        <time>2024-01-27T15:18:22Z</time>
      </trkpt>
      <trkpt lat="47.1938" lon="-1.58298">
        <ele>7</ele>
        <time>2024-01-27T15:18:51Z</time>
      </trkpt>
      <trkpt lat="47.19352" lon="-1.58284">
        <ele>7</ele>
        <time>2024-01-27T15:19:30Z</time>
      </trkpt>
      <trkpt lat="47.1935" lon="-1.58326">
        <ele>6</ele>
        <time>2024-01-27T15:20:09Z</time>
      </trkpt>
      <trkpt lat="47.19375" lon="-1.58341">
        <ele>7</ele>
        <time>2024-01-27T15:20:45Z</time>
      </trkpt>
      <trkpt lat="47.19386" lon="-1.58343">
        <ele>7</ele>
        <time>2024-01-27T15:20:59Z</time>
      </trkpt>
      <trkpt lat="47.19392" lon="-1.58307">
        <ele>7</ele>
        <time>2024-01-27T15:21:33Z</time>
      </trkpt>
      <trkpt lat="47.19443" lon="-1.58339">
        <ele>6</ele>
        <time>2024-01-27T15:22:47Z</time>
      </trkpt>
      <trkpt lat="47.19417" lon="-1.58396">
        <ele>5</ele>
        <time>2024-01-27T15:23:49Z</time>
      </trkpt>
      <trkpt lat="47.19391" lon="-1.5839">
        <ele>6</ele>
        <time>2024-01-27T15:24:24Z</time>
      </trkpt>
      <trkpt lat="47.19374" lon="-1.58434">
        <ele>5</ele>
        <time>2024-01-27T15:25:10Z</time>
      </trkpt>
      <trkpt lat="47.19412" lon="-1.58444">
        <ele>4</ele>
        <time>2024-01-27T15:26:02Z</time>
      </trkpt>
      <trkpt lat="47.19372" lon="-1.58542">
        <ele>4</ele>
        <time>2024-01-27T15:27:45Z</time>
      </trkpt>
      <trkpt lat="47.19386" lon="-1.58553">
        <ele>3</ele>
        <time>2024-01-27T15:28:07Z</time>
      </trkpt>
      <trkpt lat="47.1938" lon="-1.58608">
        <ele>3</ele>
        <time>2024-01-27T15:28:57Z</time>
      </trkpt>
      <trkpt lat="47.19372" lon="-1.58618">
        <ele>3</ele>
        <time>2024-01-27T15:29:11Z</time>
      </trkpt>
      <trkpt lat="47.1936" lon="-1.58603">
        <ele>4</ele>
        <time>2024-01-27T15:29:32Z</time>
      </trkpt>
      <trkpt lat="47.1933" lon="-1.58615">
        <ele>5</ele>
        <time>2024-01-27T15:30:14Z</time>
      </trkpt>
      <trkpt lat="47.19278" lon="-1.58513">
        <ele>5</ele>
        <time>2024-01-27T15:32:09Z</time>
      </trkpt>
      <trkpt lat="47.19274" lon="-1.58523">
        <ele>5</ele>
        <time>2024-01-27T15:32:20Z</time>
      </trkpt>
      <trkpt lat="47.19245" lon="-1.58571">
        <ele>5</ele>
        <time>2024-01-27T15:33:18Z</time>
      </trkpt>
      <trkpt lat="47.19223" lon="-1.58569">
        <ele>5</ele>
        <time>2024-01-27T15:33:47Z</time>
      </trkpt>
      <trkpt lat="47.19203" lon="-1.58575">
        <ele>5</ele>
        <time>2024-01-27T15:34:15Z</time>
      </trkpt>
      <trkpt lat="47.1916" lon="-1.5852">
        <ele>6</ele>
        <time>2024-01-27T15:35:31Z</time>
      </trkpt>
      <trkpt lat="47.1914" lon="-1.58524">
        <ele>5</ele>
        <time>2024-01-27T15:35:58Z</time>
      </trkpt>
      <trkpt lat="47.19116" lon="-1.58507">
        <ele>5</ele>
        <time>2024-01-27T15:36:33Z</time>
      </trkpt>
      <trkpt lat="47.19086" lon="-1.58533">
        <ele>5</ele>
        <time>2024-01-27T15:37:20Z</time>
      </trkpt>
      <trkpt lat="47.19065" lon="-1.58558">
        <ele>5</ele>
        <time>2024-01-27T15:37:56Z</time>
      </trkpt>
      <trkpt lat="47.19053" lon="-1.58559">
        <ele>6</ele>
        <time>2024-01-27T15:38:12Z</time>
      </trkpt>
      <trkpt lat="47.19043" lon="-1.58572">
        <ele>6</ele>
        <time>2024-01-27T15:38:29Z</time>
      </trkpt>
      <trkpt lat="47.19003" lon="-1.58475">
        <ele>6</ele>
        <time>2024-01-27T15:40:12Z</time>
      </trkpt>
      <trkpt lat="47.18979" lon="-1.5842">
        <ele>6</ele>
        <time>2024-01-27T15:41:12Z</time>
      </trkpt>
      <trkpt lat="47.1895" lon="-1.58367">
        <ele>5</ele>
        <time>2024-01-27T15:42:13Z</time>
      </trkpt>
      <trkpt lat="47.18941" lon="-1.58304">
        <ele>5</ele>
        <time>2024-01-27T15:43:12Z</time>
      </trkpt>
      <trkpt lat="47.1898" lon="-1.58178">
        <ele>5</ele>
        <time>2024-01-27T15:45:17Z</time>
      </trkpt>
      <trkpt lat="47.19033" lon="-1.58058">
        <ele>5</ele>
        <time>2024-01-27T15:47:27Z</time>
      </trkpt>
      <trkpt lat="47.19089" lon="-1.57879">
        <ele>3</ele>
        <time>2024-01-27T15:50:26Z</time>
      </trkpt>
      <trkpt lat="47.19187" lon="-1.57599">
        <ele>7</ele>
        <time>2024-01-27T15:55:11Z</time>
      </trkpt>
      <trkpt lat="47.19205" lon="-1.57547">
        <ele>7</ele>
        <time>2024-01-27T15:56:04Z</time>
      </trkpt>
      <trkpt lat="47.19208" lon="-1.57523">
        <ele>7</ele>
        <time>2024-01-27T15:56:26Z</time>
      </trkpt>
      <trkpt lat="47.19237" lon="-1.57429">
        <ele>7</ele>
        <time>2024-01-27T15:58:00Z</time>
      </trkpt>
      <trkpt lat="47.19276" lon="-1.5732">
        <ele>8</ele>
        <time>2024-01-27T15:59:52Z</time>
      </trkpt>
      <trkpt lat="47.19304" lon="-1.57213">
        <ele>9</ele>
        <time>2024-01-27T16:01:36Z</time>
      </trkpt>
      <trkpt lat="47.19324" lon="-1.57117">
        <ele>9</ele>
        <time>2024-01-27T16:03:07Z</time>
      </trkpt>
      <trkpt lat="47.19325" lon="-1.57088">
        <ele>8</ele>
        <time>2024-01-27T16:03:33Z</time>
      </trkpt>
      <trkpt lat="47.19299" lon="-1.57069">
        <ele>7</ele>
        <time>2024-01-27T16:04:12Z</time>
      </trkpt>
      <trkpt lat="47.19276" lon="-1.57065">
        <ele>6</ele>
        <time>2024-01-27T16:04:43Z</time>
      </trkpt>
      <trkpt lat="47.19258" lon="-1.57071">
        <ele>5</ele>
        <time>2024-01-27T16:05:07Z</time>
      </trkpt>
      <trkpt lat="47.19247" lon="-1.57039">
        <ele>5</ele>
        <time>2024-01-27T16:05:40Z</time>
      </trkpt>
      <trkpt lat="47.19253" lon="-1.57024">
        <ele>5</ele>
        <time>2024-01-27T16:05:56Z</time>
      </trkpt>
      <trkpt lat="47.19262" lon="-1.56957">
        <ele>5</ele>
        <time>2024-01-27T16:06:58Z</time>
      </trkpt>
      <trkpt lat="47.19265" lon="-1.56874">
        <ele>5</ele>
        <time>2024-01-27T16:08:13Z</time>
      </trkpt>
      <trkpt lat="47.19243" lon="-1.56866">
        <ele>4</ele>
        <time>2024-01-27T16:08:43Z</time>
      </trkpt>
      <trkpt lat="47.19215" lon="-1.56864">
        <ele>6</ele>
        <time>2024-01-27T16:09:21Z</time>
      </trkpt>
      <trkpt lat="47.19215" lon="-1.56769">
        <ele>6</ele>
        <time>2024-01-27T16:10:47Z</time>
      </trkpt>
      <trkpt lat="47.19221" lon="-1.56705">
        <ele>5</ele>
        <time>2024-01-27T16:11:45Z</time>
      </trkpt>
      <trkpt lat="47.19228" lon="-1.56605">
        <ele>4</ele>
        <time>2024-01-27T16:13:17Z</time>
      </trkpt>
      <trkpt lat="47.19187" lon="-1.56598">
        <ele>7</ele>
        <time>2024-01-27T16:14:12Z</time>
      </trkpt>
      <trkpt lat="47.19172" lon="-1.56582">
        <ele>8</ele>
        <time>2024-01-27T16:14:36Z</time>
      </trkpt>
      <trkpt lat="47.19173" lon="-1.56568">
        <ele>8</ele>
        <time>2024-01-27T16:14:49Z</time>
      </trkpt>
      <trkpt lat="47.19151" lon="-1.56566">
        <ele>9</ele>
        <time>2024-01-27T16:15:19Z</time>
      </trkpt>
      <trkpt lat="47.19152" lon="-1.56508">
        <ele>9</ele>
        <time>2024-01-27T16:16:11Z</time>
      </trkpt>
      <trkpt lat="47.19158" lon="-1.56491">
        <ele>9</ele>
        <time>2024-01-27T16:16:29Z</time>
      </trkpt>
      <trkpt lat="47.19143" lon="-1.56426">
        <ele>9</ele>
        <time>2024-01-27T16:17:31Z</time>
      </trkpt>
      <trkpt lat="47.19147" lon="-1.56389">
        <ele>9</ele>
        <time>2024-01-27T16:18:05Z</time>
      </trkpt>
      <trkpt lat="47.19164" lon="-1.56363">
        <ele>8</ele>
        <time>2024-01-27T16:18:37Z</time>
      </trkpt>
      <trkpt lat="47.19185" lon="-1.56233">
        <ele>9</ele>
        <time>2024-01-27T16:20:39Z</time>
      </trkpt>
      <trkpt lat="47.19202" lon="-1.56207">
        <ele>9</ele>
        <time>2024-01-27T16:21:11Z</time>
      </trkpt>
      <trkpt lat="47.19219" lon="-1.56202">
        <ele>8</ele>
        <time>2024-01-27T16:21:35Z</time>
      </trkpt>
      <trkpt lat="47.19232" lon="-1.56157">
        <ele>8</ele>
        <time>2024-01-27T16:22:19Z</time>
      </trkpt>
      <trkpt lat="47.1922" lon="-1.55966">
        <ele>10</ele>
        <time>2024-01-27T16:25:13Z</time>
      </trkpt>
      <trkpt lat="47.19209" lon="-1.55748">
        <ele>8</ele>
        <time>2024-01-27T16:28:31Z</time>
      </trkpt>
      <trkpt lat="47.19202" lon="-1.55616">
        <ele>6</ele>
        <time>2024-01-27T16:30:31Z</time>
      </trkpt>
      <trkpt lat="47.19214" lon="-1.55578">
        <ele>6</ele>
        <time>2024-01-27T16:31:09Z</time>
      </trkpt>
      <trkpt lat="47.19214" lon="-1.55527">
        <ele>6</ele>
        <time>2024-01-27T16:31:55Z</time>
      </trkpt>
      <trkpt lat="47.19216" lon="-1.55479">
        <ele>6</ele>
        <time>2024-01-27T16:32:39Z</time>
      </trkpt>
      <trkpt lat="47.19185" lon="-1.55456">
        <ele>6</ele>
        <time>2024-01-27T16:33:25Z</time>
      </trkpt>
      <trkpt lat="47.19169" lon="-1.55448">
        <ele>6</ele>
        <time>2024-01-27T16:33:48Z</time>
      </trkpt>
      <trkpt lat="47.19165" lon="-1.55399">
        <ele>7</ele>
        <time>2024-01-27T16:34:33Z</time>
      </trkpt>
      <trkpt lat="47.19199" lon="-1.55379">
        <ele>7</ele>
        <time>2024-01-27T16:35:21Z</time>
      </trkpt>
      <trkpt lat="47.19234" lon="-1.55378">
        <ele>7</ele>
        <time>2024-01-27T16:36:08Z</time>
      </trkpt>
      <trkpt lat="47.19262" lon="-1.55236">
        <ele>8</ele>
        <time>2024-01-27T16:38:22Z</time>
      </trkpt>
      <trkpt lat="47.19267" lon="-1.5519">
        <ele>7</ele>
        <time>2024-01-27T16:39:04Z</time>
      </trkpt>
      <trkpt lat="47.19284" lon="-1.55141">
        <ele>7</ele>
        <time>2024-01-27T16:39:54Z</time>
      </trkpt>
      <trkpt lat="47.19302" lon="-1.55051">
        <ele>7</ele>
        <time>2024-01-27T16:41:19Z</time>
      </trkpt>
      <trkpt lat="47.19306" lon="-1.55018">
        <ele>8</ele>
        <time>2024-01-27T16:41:50Z</time>
      </trkpt>
      <trkpt lat="47.19294" lon="-1.55">
        <ele>8</ele>
        <time>2024-01-27T16:42:13Z</time>
      </trkpt>
      <trkpt lat="47.19257" lon="-1.55021">
        <ele>6</ele>
        <time>2024-01-27T16:43:06Z</time>
      </trkpt>
      <trkpt lat="47.19199" lon="-1.55031">
        <ele>8</ele>
        <time>2024-01-27T16:44:24Z</time>
      </trkpt>
      <trkpt lat="47.19134" lon="-1.5508">
        <ele>11</ele>
        <time>2024-01-27T16:46:01Z</time>
      </trkpt>
      <trkpt lat="47.19115" lon="-1.55115">
        <ele>11</ele>
        <time>2024-01-27T16:46:42Z</time>
      </trkpt>
      <trkpt lat="47.191" lon="-1.55083">
        <ele>12</ele>
        <time>2024-01-27T16:47:17Z</time>
      </trkpt>
      <trkpt lat="47.19107" lon="-1.55048">
        <ele>12</ele>
        <time>2024-01-27T16:47:50Z</time>
      </trkpt>
      <trkpt lat="47.19164" lon="-1.54965">
        <ele>11</ele>
        <time>2024-01-27T16:49:37Z</time>
      </trkpt>
      <trkpt lat="47.19196" lon="-1.54925">
        <ele>10</ele>
        <time>2024-01-27T16:50:33Z</time>
      </trkpt>
      <trkpt lat="47.19247" lon="-1.54912">
        <ele>7</ele>
        <time>2024-01-27T16:51:42Z</time>
      </trkpt>
      <trkpt lat="47.19288" lon="-1.54899">
        <ele>8</ele>
        <time>2024-01-27T16:52:38Z</time>
      </trkpt>
      <trkpt lat="47.19307" lon="-1.54944">
        <ele>8</ele>
        <time>2024-01-27T16:53:26Z</time>
      </trkpt>
      <trkpt lat="47.19328" lon="-1.54919">
        <ele>9</ele>
        <time>2024-01-27T16:54:02Z</time>
      </trkpt>
      <trkpt lat="47.1934" lon="-1.54918">
        <ele>9</ele>
        <time>2024-01-27T16:54:18Z</time>
      </trkpt>
      <trkpt lat="47.19377" lon="-1.54921">
        <ele>8</ele>
        <time>2024-01-27T16:55:08Z</time>
      </trkpt>
      <trkpt lat="47.1943" lon="-1.5492">
        <ele>7</ele>
        <time>2024-01-27T16:56:18Z</time>
      </trkpt>
      <trkpt lat="47.19483" lon="-1.54932">
        <ele>7</ele>
        <time>2024-01-27T16:57:30Z</time>
      </trkpt>
      <trkpt lat="47.19506" lon="-1.54913">
        <ele>7</ele>
        <time>2024-01-27T16:58:05Z</time>
      </trkpt>
      <trkpt lat="47.19538" lon="-1.54915">
        <ele>7</ele>
        <time>2024-01-27T16:58:48Z</time>
      </trkpt>
      <trkpt lat="47.1957" lon="-1.54919">
        <ele>7</ele>
        <time>2024-01-27T16:59:31Z</time>
      </trkpt>
      <trkpt lat="47.1962" lon="-1.54917">
        <ele>7</ele>
        <time>2024-01-27T17:00:37Z</time>
      </trkpt>
      <trkpt lat="47.19646" lon="-1.54911">
        <ele>6</ele>
        <time>2024-01-27T17:01:13Z</time>
      </trkpt>
      <trkpt lat="47.19652" lon="-1.54889">
        <ele>6</ele>
        <time>2024-01-27T17:01:34Z</time>
      </trkpt>
      <trkpt lat="47.19672" lon="-1.54835">
        <ele>6</ele>
        <time>2024-01-27T17:02:30Z</time>
      </trkpt>
      <trkpt lat="47.19635" lon="-1.54774">
        <ele>4</ele>
        <time>2024-01-27T17:03:44Z</time>
      </trkpt>
      <trkpt lat="47.19612" lon="-1.54741">
        <ele>4</ele>
        <time>2024-01-27T17:04:27Z</time>
      </trkpt>
      <trkpt lat="47.19593" lon="-1.54724">
        <ele>5</ele>
        <time>2024-01-27T17:04:57Z</time>
      </trkpt>
      <trkpt lat="47.19579" lon="-1.54698">
        <ele>4</ele>
        <time>2024-01-27T17:05:27Z</time>
      </trkpt>
      <trkpt lat="47.19571" lon="-1.54682">
        <ele>4</ele>
        <time>2024-01-27T17:05:45Z</time>
      </trkpt>
      <trkpt lat="47.19493" lon="-1.54588">
        <ele>4</ele>
        <time>2024-01-27T17:07:59Z</time>
      </trkpt>
      <trkpt lat="47.19472" lon="-1.54455">
        <ele>6</ele>
        <time>2024-01-27T17:10:03Z</time>
      </trkpt>
      <trkpt lat="47.19519" lon="-1.54416">
        <ele>5</ele>
        <time>2024-01-27T17:11:15Z</time>
      </trkpt>
      <trkpt lat="47.19573" lon="-1.54364">
        <ele>7</ele>
        <time>2024-01-27T17:12:41Z</time>
      </trkpt>
      <trkpt lat="47.19594" lon="-1.54323">
        <ele>7</ele>
        <time>2024-01-27T17:13:28Z</time>
      </trkpt>
      <trkpt lat="47.19623" lon="-1.54313">
        <ele>8</ele>
        <time>2024-01-27T17:14:07Z</time>
      </trkpt>
    </trkseg>
  </trk>
</gpx>